Impacts TAF Board INFO
FOR SITUATIONAL AWARENESS. NOT TO BE USED FOR FLIGHT PLANNING PURPOSES.
IDs:

KBWI - Baltimore-Washington, MD, US

Issued at 1430 UTC 11 Dec 2017
Updated at 1712 UTC 11 Dec 2017
Potential Impact None Slight Moderate High
Time<<12/18Z 12/19Z 12/20Z 12/21Z 12/22Z 12/23Z 13/00Z 13/01Z 13/02Z 13/03Z 13/04Z 13/05Z 13/06Z
Type
VIS
CIG
Cover
FltCat
WX
WDir
WSpd
WGst

Raw TAF
KBWI 111430Z 1115/1218 27005KT P6SM SCT150
  FM120000 VRB03KT P6SM BKN110
  FM121400 22007KT P6SM BKN060
  FM121700 26012G20KT P6SM BKN045


METAR Board
Radar Display
Forecast Discussion

FOR SITUATIONAL AWARENESS. NOT TO BE USED FOR FLIGHT PLANNING PURPOSES.